sensor_id;sensor_type;location;lat;lon;timestamp;temperature;humidity
31443;SHT31;18065;55.876;9.830;2022-12-07T00:01:46;20.02;51.86
31443;SHT31;18065;55.876;9.830;2022-12-07T00:04:16;20.01;51.87
31443;SHT31;18065;55.876;9.830;2022-12-07T00:06:47;19.99;51.85
31443;SHT31;18065;55.876;9.830;2022-12-07T00:09:19;20.04;51.89
31443;SHT31;18065;55.876;9.830;2022-12-07T00:11:49;20.02;51.88
31443;SHT31;18065;55.876;9.830;2022-12-07T00:14:21;19.99;51.88
31443;SHT31;18065;55.876;9.830;2022-12-07T00:16:51;20.02;51.91
31443;SHT31;18065;55.876;9.830;2022-12-07T00:19:20;20.04;51.85
31443;SHT31;18065;55.876;9.830;2022-12-07T00:21:48;20.01;51.89
31443;SHT31;18065;55.876;9.830;2022-12-07T00:24:17;19.99;51.91
31443;SHT31;18065;55.876;9.830;2022-12-07T00:26:46;20.04;51.96
31443;SHT31;18065;55.876;9.830;2022-12-07T00:29:17;20.04;51.95
31443;SHT31;18065;55.876;9.830;2022-12-07T00:31:48;19.99;52.00
31443;SHT31;18065;55.876;9.830;2022-12-07T00:34:19;20.02;52.02
31443;SHT31;18065;55.876;9.830;2022-12-07T00:36:48;20.02;52.04
31443;SHT31;18065;55.876;9.830;2022-12-07T00:39:17;20.04;52.05
31443;SHT31;18065;55.876;9.830;2022-12-07T00:41:46;20.02;52.04
31443;SHT31;18065;55.876;9.830;2022-12-07T00:44:14;20.02;52.04
31443;SHT31;18065;55.876;9.830;2022-12-07T00:46:43;20.04;52.00
31443;SHT31;18065;55.876;9.830;2022-12-07T00:49:15;20.02;51.97
31443;SHT31;18065;55.876;9.830;2022-12-07T00:51:43;20.02;51.92
31443;SHT31;18065;55.876;9.830;2022-12-07T00:54:12;20.04;51.92
31443;SHT31;18065;55.876;9.830;2022-12-07T00:56:40;20.02;51.89
31443;SHT31;18065;55.876;9.830;2022-12-07T00:59:12;20.05;51.88
31443;SHT31;18065;55.876;9.830;2022-12-07T01:01:41;20.02;51.89
31443;SHT31;18065;55.876;9.830;2022-12-07T01:04:09;20.05;51.95
31443;SHT31;18065;55.876;9.830;2022-12-07T01:06:41;20.04;51.92
31443;SHT31;18065;55.876;9.830;2022-12-07T01:09:09;20.02;51.90
31443;SHT31;18065;55.876;9.830;2022-12-07T01:11:38;20.01;51.88
31443;SHT31;18065;55.876;9.830;2022-12-07T01:14:08;20.02;51.92
31443;SHT31;18065;55.876;9.830;2022-12-07T01:16:38;19.99;51.89
31443;SHT31;18065;55.876;9.830;2022-12-07T01:19:07;20.04;51.87
31443;SHT31;18065;55.876;9.830;2022-12-07T01:21:35;20.02;51.89
31443;SHT31;18065;55.876;9.830;2022-12-07T01:24:09;19.99;51.89
31443;SHT31;18065;55.876;9.830;2022-12-07T01:26:39;20.01;51.86
31443;SHT31;18065;55.876;9.830;2022-12-07T01:29:07;20.02;51.85
31443;SHT31;18065;55.876;9.830;2022-12-07T01:31:36;20.01;51.84
31443;SHT31;18065;55.876;9.830;2022-12-07T01:34:05;19.98;51.81
31443;SHT31;18065;55.876;9.830;2022-12-07T01:36:35;20.02;51.82
31443;SHT31;18065;55.876;9.830;2022-12-07T01:39:08;19.99;51.84
31443;SHT31;18065;55.876;9.830;2022-12-07T01:41:39;19.99;51.77
31443;SHT31;18065;55.876;9.830;2022-12-07T01:44:18;19.98;51.82
31443;SHT31;18065;55.876;9.830;2022-12-07T01:46:48;19.99;51.73
31443;SHT31;18065;55.876;9.830;2022-12-07T01:49:25;20.02;51.79
31443;SHT31;18065;55.876;9.830;2022-12-07T01:51:58;19.99;51.73
31443;SHT31;18065;55.876;9.830;2022-12-07T01:54:31;20.01;51.75
31443;SHT31;18065;55.876;9.830;2022-12-07T01:57:01;20.01;51.73
31443;SHT31;18065;55.876;9.830;2022-12-07T01:59:31;19.99;51.74
31443;SHT31;18065;55.876;9.830;2022-12-07T02:02:02;19.98;51.75
31443;SHT31;18065;55.876;9.830;2022-12-07T02:04:32;19.99;51.74
31443;SHT31;18065;55.876;9.830;2022-12-07T02:07:01;19.98;51.79
31443;SHT31;18065;55.876;9.830;2022-12-07T02:09:33;19.97;51.82
31443;SHT31;18065;55.876;9.830;2022-12-07T02:12:02;19.98;51.91
31443;SHT31;18065;55.876;9.830;2022-12-07T02:14:32;20.01;51.90
31443;SHT31;18065;55.876;9.830;2022-12-07T02:17:09;19.95;51.96
31443;SHT31;18065;55.876;9.830;2022-12-07T02:20:13;19.98;51.94
31443;SHT31;18065;55.876;9.830;2022-12-07T02:26:19;20.01;51.97
31443;SHT31;18065;55.876;9.830;2022-12-07T02:29:10;19.97;52.00
31443;SHT31;18065;55.876;9.830;2022-12-07T02:31:44;19.97;51.95
31443;SHT31;18065;55.876;9.830;2022-12-07T02:34:20;19.93;51.98
31443;SHT31;18065;55.876;9.830;2022-12-07T02:36:55;19.95;51.94
31443;SHT31;18065;55.876;9.830;2022-12-07T02:39:30;19.97;51.93
31443;SHT31;18065;55.876;9.830;2022-12-07T02:42:04;19.95;51.90
31443;SHT31;18065;55.876;9.830;2022-12-07T02:44:38;19.97;51.93
31443;SHT31;18065;55.876;9.830;2022-12-07T02:47:10;19.98;51.97
31443;SHT31;18065;55.876;9.830;2022-12-07T02:49:40;19.95;51.97
31443;SHT31;18065;55.876;9.830;2022-12-07T02:52:10;19.98;51.96
31443;SHT31;18065;55.876;9.830;2022-12-07T02:54:39;19.98;51.90
31443;SHT31;18065;55.876;9.830;2022-12-07T02:57:19;19.97;51.95
31443;SHT31;18065;55.876;9.830;2022-12-07T03:00:00;19.98;51.92
31443;SHT31;18065;55.876;9.830;2022-12-07T03:02:37;19.97;51.92
31443;SHT31;18065;55.876;9.830;2022-12-07T03:05:15;19.98;51.89
31443;SHT31;18065;55.876;9.830;2022-12-07T03:07:54;19.97;51.90
31443;SHT31;18065;55.876;9.830;2022-12-07T03:10:31;20.01;51.89
31443;SHT31;18065;55.876;9.830;2022-12-07T03:13:05;19.99;51.85
31443;SHT31;18065;55.876;9.830;2022-12-07T03:15:39;20.02;51.82
31443;SHT31;18065;55.876;9.830;2022-12-07T03:18:11;19.97;51.86
31443;SHT31;18065;55.876;9.830;2022-12-07T03:20:42;19.97;51.90
31443;SHT31;18065;55.876;9.830;2022-12-07T03:23:12;19.92;51.89
31443;SHT31;18065;55.876;9.830;2022-12-07T03:25:45;19.95;51.84
31443;SHT31;18065;55.876;9.830;2022-12-07T03:28:18;19.98;51.84
31443;SHT31;18065;55.876;9.830;2022-12-07T03:30:55;19.97;51.87
31443;SHT31;18065;55.876;9.830;2022-12-07T03:33:28;19.97;51.82
31443;SHT31;18065;55.876;9.830;2022-12-07T03:36:01;19.95;51.78
31443;SHT31;18065;55.876;9.830;2022-12-07T03:38:38;19.93;51.79
31443;SHT31;18065;55.876;9.830;2022-12-07T03:41:11;19.97;51.81
31443;SHT31;18065;55.876;9.830;2022-12-07T03:43:43;19.97;51.77
31443;SHT31;18065;55.876;9.830;2022-12-07T03:46:20;19.95;51.78
31443;SHT31;18065;55.876;9.830;2022-12-07T03:48:56;19.93;51.73
31443;SHT31;18065;55.876;9.830;2022-12-07T03:51:32;19.93;51.78
31443;SHT31;18065;55.876;9.830;2022-12-07T03:54:09;19.93;51.76
31443;SHT31;18065;55.876;9.830;2022-12-07T03:56:39;19.93;51.79
31443;SHT31;18065;55.876;9.830;2022-12-07T03:59:09;19.92;51.78
31443;SHT31;18065;55.876;9.830;2022-12-07T04:01:44;19.97;51.84
31443;SHT31;18065;55.876;9.830;2022-12-07T04:04:13;19.95;51.78
31443;SHT31;18065;55.876;9.830;2022-12-07T04:06:41;19.97;51.82
31443;SHT31;18065;55.876;9.830;2022-12-07T04:09:10;19.95;51.85
31443;SHT31;18065;55.876;9.830;2022-12-07T04:11:40;19.97;51.80
31443;SHT31;18065;55.876;9.830;2022-12-07T04:14:08;19.93;51.84
31443;SHT31;18065;55.876;9.830;2022-12-07T04:16:50;19.98;51.84
31443;SHT31;18065;55.876;9.830;2022-12-07T04:19:22;19.98;51.82
31443;SHT31;18065;55.876;9.830;2022-12-07T04:21:51;19.97;51.80
31443;SHT31;18065;55.876;9.830;2022-12-07T04:24:20;19.93;51.79
31443;SHT31;18065;55.876;9.830;2022-12-07T04:26:48;19.97;51.78
31443;SHT31;18065;55.876;9.830;2022-12-07T04:29:18;19.95;51.74
31443;SHT31;18065;55.876;9.830;2022-12-07T04:31:50;19.92;51.78
31443;SHT31;18065;55.876;9.830;2022-12-07T04:34:19;19.95;51.71
31443;SHT31;18065;55.876;9.830;2022-12-07T04:36:48;19.93;51.73
31443;SHT31;18065;55.876;9.830;2022-12-07T04:39:20;19.97;51.67
31443;SHT31;18065;55.876;9.830;2022-12-07T04:41:49;19.97;51.67
31443;SHT31;18065;55.876;9.830;2022-12-07T04:44:18;19.93;51.65
31443;SHT31;18065;55.876;9.830;2022-12-07T04:46:50;19.95;51.63
31443;SHT31;18065;55.876;9.830;2022-12-07T04:49:20;19.97;51.64
31443;SHT31;18065;55.876;9.830;2022-12-07T04:51:50;19.95;51.64
31443;SHT31;18065;55.876;9.830;2022-12-07T04:54:19;19.95;51.63
31443;SHT31;18065;55.876;9.830;2022-12-07T04:56:48;19.93;51.63
31443;SHT31;18065;55.876;9.830;2022-12-07T04:59:17;19.97;51.63
31443;SHT31;18065;55.876;9.830;2022-12-07T05:01:45;19.93;51.67
31443;SHT31;18065;55.876;9.830;2022-12-07T05:04:17;19.93;51.67
31443;SHT31;18065;55.876;9.830;2022-12-07T05:06:46;19.98;51.67
31443;SHT31;18065;55.876;9.830;2022-12-07T05:09:14;19.98;51.74
31443;SHT31;18065;55.876;9.830;2022-12-07T05:11:43;19.97;51.66
31443;SHT31;18065;55.876;9.830;2022-12-07T05:14:14;19.98;51.71
31443;SHT31;18065;55.876;9.830;2022-12-07T05:16:44;19.99;51.67
31443;SHT31;18065;55.876;9.830;2022-12-07T05:19:16;19.98;51.59
31443;SHT31;18065;55.876;9.830;2022-12-07T05:21:45;19.99;51.59
31443;SHT31;18065;55.876;9.830;2022-12-07T05:24:14;20.01;51.55
31443;SHT31;18065;55.876;9.830;2022-12-07T05:26:44;20.01;51.58
31443;SHT31;18065;55.876;9.830;2022-12-07T05:29:14;20.04;51.55
31443;SHT31;18065;55.876;9.830;2022-12-07T05:31:44;20.05;51.50
31443;SHT31;18065;55.876;9.830;2022-12-07T05:34:13;20.05;51.48
31443;SHT31;18065;55.876;9.830;2022-12-07T05:36:44;20.06;51.51
31443;SHT31;18065;55.876;9.830;2022-12-07T05:39:12;20.08;51.45
31443;SHT31;18065;55.876;9.830;2022-12-07T05:41:41;20.08;51.46
31443;SHT31;18065;55.876;9.830;2022-12-07T05:44:22;20.10;51.42
31443;SHT31;18065;55.876;9.830;2022-12-07T05:46:51;20.09;51.42
31443;SHT31;18065;55.876;9.830;2022-12-07T05:49:20;20.10;51.37
31443;SHT31;18065;55.876;9.830;2022-12-07T05:51:51;20.12;51.37
31443;SHT31;18065;55.876;9.830;2022-12-07T05:54:20;20.16;51.33
31443;SHT31;18065;55.876;9.830;2022-12-07T05:56:49;20.13;51.31
31443;SHT31;18065;55.876;9.830;2022-12-07T05:59:17;20.15;51.30
31443;SHT31;18065;55.876;9.830;2022-12-07T06:01:50;20.15;51.27
31443;SHT31;18065;55.876;9.830;2022-12-07T06:04:19;20.15;51.27
31443;SHT31;18065;55.876;9.830;2022-12-07T06:06:51;20.18;51.23
31443;SHT31;18065;55.876;9.830;2022-12-07T06:09:21;20.18;51.21
31443;SHT31;18065;55.876;9.830;2022-12-07T06:11:49;20.19;51.21
31443;SHT31;18065;55.876;9.830;2022-12-07T06:14:31;20.19;51.21
31443;SHT31;18065;55.876;9.830;2022-12-07T06:16:59;20.18;51.17
31443;SHT31;18065;55.876;9.830;2022-12-07T06:19:28;20.22;51.14
31443;SHT31;18065;55.876;9.830;2022-12-07T06:22:00;20.18;51.17
31443;SHT31;18065;55.876;9.830;2022-12-07T06:24:30;20.20;51.12
31443;SHT31;18065;55.876;9.830;2022-12-07T06:26:59;20.20;51.10
31443;SHT31;18065;55.876;9.830;2022-12-07T06:29:28;20.25;51.01
31443;SHT31;18065;55.876;9.830;2022-12-07T06:31:57;20.23;51.04
31443;SHT31;18065;55.876;9.830;2022-12-07T06:34:26;20.23;51.02
31443;SHT31;18065;55.876;9.830;2022-12-07T06:36:54;20.25;51.00
31443;SHT31;18065;55.876;9.830;2022-12-07T06:39:27;20.23;51.01
31443;SHT31;18065;55.876;9.830;2022-12-07T06:41:57;20.26;50.95
31443;SHT31;18065;55.876;9.830;2022-12-07T06:44:25;20.26;50.96
31443;SHT31;18065;55.876;9.830;2022-12-07T06:46:55;20.26;50.91
31443;SHT31;18065;55.876;9.830;2022-12-07T06:49:23;20.25;50.94
31443;SHT31;18065;55.876;9.830;2022-12-07T06:51:52;20.26;50.90
31443;SHT31;18065;55.876;9.830;2022-12-07T06:54:21;20.26;50.89
31443;SHT31;18065;55.876;9.830;2022-12-07T06:56:52;20.26;50.83
31443;SHT31;18065;55.876;9.830;2022-12-07T06:59:21;20.28;50.86
31443;SHT31;18065;55.876;9.830;2022-12-07T07:01:50;20.28;50.84
31443;SHT31;18065;55.876;9.830;2022-12-07T07:04:18;20.29;50.78
31443;SHT31;18065;55.876;9.830;2022-12-07T07:06:47;20.30;50.73
31443;SHT31;18065;55.876;9.830;2022-12-07T07:09:16;20.30;50.77
31443;SHT31;18065;55.876;9.830;2022-12-07T07:11:44;20.33;50.72
31443;SHT31;18065;55.876;9.830;2022-12-07T07:14:16;20.30;50.71
31443;SHT31;18065;55.876;9.830;2022-12-07T07:16:45;20.29;50.70
31443;SHT31;18065;55.876;9.830;2022-12-07T07:19:13;20.30;50.70
31443;SHT31;18065;55.876;9.830;2022-12-07T07:21:42;20.33;50.72
31443;SHT31;18065;55.876;9.830;2022-12-07T07:24:11;20.30;50.66
31443;SHT31;18065;55.876;9.830;2022-12-07T07:26:39;20.32;50.68
31443;SHT31;18065;55.876;9.830;2022-12-07T07:29:08;20.32;50.64
31443;SHT31;18065;55.876;9.830;2022-12-07T07:31:39;20.32;50.63
31443;SHT31;18065;55.876;9.830;2022-12-07T07:34:08;20.36;50.63
31443;SHT31;18065;55.876;9.830;2022-12-07T07:36:36;20.33;50.61
31443;SHT31;18065;55.876;9.830;2022-12-07T07:39:05;20.34;50.58
31443;SHT31;18065;55.876;9.830;2022-12-07T07:41:34;20.33;50.59
31443;SHT31;18065;55.876;9.830;2022-12-07T07:44:03;20.33;50.54
31443;SHT31;18065;55.876;9.830;2022-12-07T07:46:31;20.33;50.54
31443;SHT31;18065;55.876;9.830;2022-12-07T07:49:03;20.36;50.51
31443;SHT31;18065;55.876;9.830;2022-12-07T07:51:31;20.34;50.53
31443;SHT31;18065;55.876;9.830;2022-12-07T07:54:00;20.34;50.47
31443;SHT31;18065;55.876;9.830;2022-12-07T07:56:29;20.37;50.52
31443;SHT31;18065;55.876;9.830;2022-12-07T07:58:57;20.37;50.50
31443;SHT31;18065;55.876;9.830;2022-12-07T08:01:26;20.34;50.50
31443;SHT31;18065;55.876;9.830;2022-12-07T08:03:55;20.36;50.47
31443;SHT31;18065;55.876;9.830;2022-12-07T08:06:26;20.37;50.51
31443;SHT31;18065;55.876;9.830;2022-12-07T08:08:55;20.39;50.52
31443;SHT31;18065;55.876;9.830;2022-12-07T08:11:24;20.39;50.48
31443;SHT31;18065;55.876;9.830;2022-12-07T08:13:52;20.39;50.47
31443;SHT31;18065;55.876;9.830;2022-12-07T08:16:21;20.40;50.46
31443;SHT31;18065;55.876;9.830;2022-12-07T08:18:50;20.39;50.47
31443;SHT31;18065;55.876;9.830;2022-12-07T08:21:19;20.41;50.51
31443;SHT31;18065;55.876;9.830;2022-12-07T08:23:50;20.39;50.47
31443;SHT31;18065;55.876;9.830;2022-12-07T08:26:19;20.40;50.48
31443;SHT31;18065;55.876;9.830;2022-12-07T08:28:47;20.40;50.47
31443;SHT31;18065;55.876;9.830;2022-12-07T08:31:17;20.43;50.45
31443;SHT31;18065;55.876;9.830;2022-12-07T08:33:46;20.44;50.45
31443;SHT31;18065;55.876;9.830;2022-12-07T08:36:16;20.41;50.40
31443;SHT31;18065;55.876;9.830;2022-12-07T08:38:45;20.41;50.42
31443;SHT31;18065;55.876;9.830;2022-12-07T08:41:16;20.43;50.38
31443;SHT31;18065;55.876;9.830;2022-12-07T08:43:46;20.41;50.38
31443;SHT31;18065;55.876;9.830;2022-12-07T08:46:20;20.43;50.41
31443;SHT31;18065;55.876;9.830;2022-12-07T08:48:52;20.44;50.34
31443;SHT31;18065;55.876;9.830;2022-12-07T08:51:23;20.44;50.33
31443;SHT31;18065;55.876;9.830;2022-12-07T08:53:52;20.46;50.32
31443;SHT31;18065;55.876;9.830;2022-12-07T08:56:24;20.44;50.30
31443;SHT31;18065;55.876;9.830;2022-12-07T08:58:53;20.43;50.28
31443;SHT31;18065;55.876;9.830;2022-12-07T09:01:22;20.47;50.31
31443;SHT31;18065;55.876;9.830;2022-12-07T09:03:51;20.46;50.29
31443;SHT31;18065;55.876;9.830;2022-12-07T09:06:20;20.43;50.22
31443;SHT31;18065;55.876;9.830;2022-12-07T09:08:51;20.46;50.23
31443;SHT31;18065;55.876;9.830;2022-12-07T09:11:20;20.49;50.19
31443;SHT31;18065;55.876;9.830;2022-12-07T09:13:51;20.49;50.20
31443;SHT31;18065;55.876;9.830;2022-12-07T09:16:20;20.47;50.16
31443;SHT31;18065;55.876;9.830;2022-12-07T09:18:49;20.49;50.12
31443;SHT31;18065;55.876;9.830;2022-12-07T09:21:17;20.47;50.14
31443;SHT31;18065;55.876;9.830;2022-12-07T09:23:46;20.47;50.09
31443;SHT31;18065;55.876;9.830;2022-12-07T09:26:15;20.50;50.06
31443;SHT31;18065;55.876;9.830;2022-12-07T09:28:43;20.50;49.99
31443;SHT31;18065;55.876;9.830;2022-12-07T09:31:15;20.49;50.04
31443;SHT31;18065;55.876;9.830;2022-12-07T09:33:43;20.50;49.98
31443;SHT31;18065;55.876;9.830;2022-12-07T09:36:12;20.50;49.91
31443;SHT31;18065;55.876;9.830;2022-12-07T09:38:41;20.50;49.93
31443;SHT31;18065;55.876;9.830;2022-12-07T09:41:10;20.50;49.89
31443;SHT31;18065;55.876;9.830;2022-12-07T09:43:39;20.53;49.87
31443;SHT31;18065;55.876;9.830;2022-12-07T09:46:09;20.51;49.82
31443;SHT31;18065;55.876;9.830;2022-12-07T09:48:45;20.51;49.71
31443;SHT31;18065;55.876;9.830;2022-12-07T09:51:17;20.51;49.75
31443;SHT31;18065;55.876;9.830;2022-12-07T09:53:47;20.50;49.75
31443;SHT31;18065;55.876;9.830;2022-12-07T09:56:17;20.47;49.73
31443;SHT31;18065;55.876;9.830;2022-12-07T09:58:47;20.50;49.69
31443;SHT31;18065;55.876;9.830;2022-12-07T10:01:19;20.51;49.70
31443;SHT31;18065;55.876;9.830;2022-12-07T10:03:53;20.51;49.63
31443;SHT31;18065;55.876;9.830;2022-12-07T10:06:22;20.53;49.62
31443;SHT31;18065;55.876;9.830;2022-12-07T10:08:51;20.50;49.62
31443;SHT31;18065;55.876;9.830;2022-12-07T10:11:19;20.51;49.63
31443;SHT31;18065;55.876;9.830;2022-12-07T10:13:50;20.50;49.60
31443;SHT31;18065;55.876;9.830;2022-12-07T10:16:43;20.53;49.60
31443;SHT31;18065;55.876;9.830;2022-12-07T10:19:24;20.53;49.57
31443;SHT31;18065;55.876;9.830;2022-12-07T10:22:05;20.53;49.55
31443;SHT31;18065;55.876;9.830;2022-12-07T10:24:37;20.53;49.52
31443;SHT31;18065;55.876;9.830;2022-12-07T10:27:18;20.53;49.56
31443;SHT31;18065;55.876;9.830;2022-12-07T10:29:49;20.54;49.47
31443;SHT31;18065;55.876;9.830;2022-12-07T10:32:30;20.53;49.57
31443;SHT31;18065;55.876;9.830;2022-12-07T10:35:22;20.54;49.52
31443;SHT31;18065;55.876;9.830;2022-12-07T10:37:53;20.53;49.48
31443;SHT31;18065;55.876;9.830;2022-12-07T10:40:29;20.54;49.51
31443;SHT31;18065;55.876;9.830;2022-12-07T10:43:11;20.57;49.51
31443;SHT31;18065;55.876;9.830;2022-12-07T10:48:52;20.56;49.49
31443;SHT31;18065;55.876;9.830;2022-12-07T10:51:34;20.60;49.50
31443;SHT31;18065;55.876;9.830;2022-12-07T10:54:11;20.56;49.49
31443;SHT31;18065;55.876;9.830;2022-12-07T10:56:58;20.57;49.46
31443;SHT31;18065;55.876;9.830;2022-12-07T10:59:49;20.59;49.51
31443;SHT31;18065;55.876;9.830;2022-12-07T11:02:30;20.59;49.42
31443;SHT31;18065;55.876;9.830;2022-12-07T11:05:07;20.61;49.41
31443;SHT31;18065;55.876;9.830;2022-12-07T11:07:50;20.61;49.36
31443;SHT31;18065;55.876;9.830;2022-12-07T11:10:25;20.61;49.38
31443;SHT31;18065;55.876;9.830;2022-12-07T11:13:19;20.61;49.39
31443;SHT31;18065;55.876;9.830;2022-12-07T11:16:09;20.61;49.32
31443;SHT31;18065;55.876;9.830;2022-12-07T11:18:51;20.60;49.32
31443;SHT31;18065;55.876;9.830;2022-12-07T11:21:24;20.61;49.32
31443;SHT31;18065;55.876;9.830;2022-12-07T11:24:02;20.66;49.29
31443;SHT31;18065;55.876;9.830;2022-12-07T11:26:54;20.64;49.26
31443;SHT31;18065;55.876;9.830;2022-12-07T11:29:48;20.64;49.26
31443;SHT31;18065;55.876;9.830;2022-12-07T11:32:26;20.66;49.23
31443;SHT31;18065;55.876;9.830;2022-12-07T11:35:05;20.63;49.20
31443;SHT31;18065;55.876;9.830;2022-12-07T11:37:37;20.66;49.17
31443;SHT31;18065;55.876;9.830;2022-12-07T11:40:16;20.61;49.18
31443;SHT31;18065;55.876;9.830;2022-12-07T11:42:51;20.64;49.16
31443;SHT31;18065;55.876;9.830;2022-12-07T11:45:21;20.69;49.09
31443;SHT31;18065;55.876;9.830;2022-12-07T11:47:55;20.67;49.04
31443;SHT31;18065;55.876;9.830;2022-12-07T11:50:33;20.66;49.06
31443;SHT31;18065;55.876;9.830;2022-12-07T11:53:09;20.64;49.07
31443;SHT31;18065;55.876;9.830;2022-12-07T11:55:48;20.64;49.01
31443;SHT31;18065;55.876;9.830;2022-12-07T11:58:39;20.67;49.06
31443;SHT31;18065;55.876;9.830;2022-12-07T12:01:15;20.67;49.03
31443;SHT31;18065;55.876;9.830;2022-12-07T12:03:50;20.64;49.02
31443;SHT31;18065;55.876;9.830;2022-12-07T12:06:20;20.67;48.98
31443;SHT31;18065;55.876;9.830;2022-12-07T12:08:53;20.67;49.01
31443;SHT31;18065;55.876;9.830;2022-12-07T12:11:39;20.67;49.02
31443;SHT31;18065;55.876;9.830;2022-12-07T12:14:29;20.67;49.00
31443;SHT31;18065;55.876;9.830;2022-12-07T12:17:21;20.66;48.94
31443;SHT31;18065;55.876;9.830;2022-12-07T12:20:01;20.70;48.93
31443;SHT31;18065;55.876;9.830;2022-12-07T12:22:35;20.70;48.94
31443;SHT31;18065;55.876;9.830;2022-12-07T12:25:07;20.69;48.90
31443;SHT31;18065;55.876;9.830;2022-12-07T12:27:46;20.69;48.90
31443;SHT31;18065;55.876;9.830;2022-12-07T12:30:35;20.69;48.92
31443;SHT31;18065;55.876;9.830;2022-12-07T12:33:06;20.71;48.85
31443;SHT31;18065;55.876;9.830;2022-12-07T12:35:41;20.70;48.85
31443;SHT31;18065;55.876;9.830;2022-12-07T12:38:26;20.73;48.92
31443;SHT31;18065;55.876;9.830;2022-12-07T12:40:55;20.73;48.84
31443;SHT31;18065;55.876;9.830;2022-12-07T12:43:43;20.73;48.89
31443;SHT31;18065;55.876;9.830;2022-12-07T12:46:37;20.73;48.83
31443;SHT31;18065;55.876;9.830;2022-12-07T12:49:36;20.71;48.88
31443;SHT31;18065;55.876;9.830;2022-12-07T12:55:49;20.71;48.88
31443;SHT31;18065;55.876;9.830;2022-12-07T13:01:36;20.76;48.84
31443;SHT31;18065;55.876;9.830;2022-12-07T13:04:24;20.73;48.82
31443;SHT31;18065;55.876;9.830;2022-12-07T13:06:54;20.73;48.86
31443;SHT31;18065;55.876;9.830;2022-12-07T13:09:24;20.74;48.83
31443;SHT31;18065;55.876;9.830;2022-12-07T13:12:02;20.73;48.84
31443;SHT31;18065;55.876;9.830;2022-12-07T13:14:43;20.74;48.85
31443;SHT31;18065;55.876;9.830;2022-12-07T13:20:46;20.74;48.80
31443;SHT31;18065;55.876;9.830;2022-12-07T13:23:18;20.76;48.79
31443;SHT31;18065;55.876;9.830;2022-12-07T13:25:51;20.76;48.80
31443;SHT31;18065;55.876;9.830;2022-12-07T13:28:22;20.74;48.84
31443;SHT31;18065;55.876;9.830;2022-12-07T13:31:10;20.73;48.86
31443;SHT31;18065;55.876;9.830;2022-12-07T13:33:44;20.76;48.85
31443;SHT31;18065;55.876;9.830;2022-12-07T13:36:19;20.76;48.86
31443;SHT31;18065;55.876;9.830;2022-12-07T13:38:54;20.76;48.85
31443;SHT31;18065;55.876;9.830;2022-12-07T13:41:24;20.73;48.86
31443;SHT31;18065;55.876;9.830;2022-12-07T13:43:59;20.74;48.86
31443;SHT31;18065;55.876;9.830;2022-12-07T13:46:40;20.74;48.85
31443;SHT31;18065;55.876;9.830;2022-12-07T13:49:21;20.76;48.85
31443;SHT31;18065;55.876;9.830;2022-12-07T13:51:50;20.73;48.85
31443;SHT31;18065;55.876;9.830;2022-12-07T13:54:20;20.76;48.85
31443;SHT31;18065;55.876;9.830;2022-12-07T13:56:51;20.76;48.84
31443;SHT31;18065;55.876;9.830;2022-12-07T13:59:22;20.76;48.81
31443;SHT31;18065;55.876;9.830;2022-12-07T14:01:53;20.77;48.86
31443;SHT31;18065;55.876;9.830;2022-12-07T14:04:35;20.76;48.92
31443;SHT31;18065;55.876;9.830;2022-12-07T14:07:20;20.74;48.90
31443;SHT31;18065;55.876;9.830;2022-12-07T14:09:57;20.76;48.88
31443;SHT31;18065;55.876;9.830;2022-12-07T14:12:27;20.76;48.89
31443;SHT31;18065;55.876;9.830;2022-12-07T14:14:58;20.74;48.87
31443;SHT31;18065;55.876;9.830;2022-12-07T14:17:27;20.74;48.89
31443;SHT31;18065;55.876;9.830;2022-12-07T14:20:00;20.73;48.90
31443;SHT31;18065;55.876;9.830;2022-12-07T14:22:32;20.76;48.88
31443;SHT31;18065;55.876;9.830;2022-12-07T14:25:18;20.74;48.90
31443;SHT31;18065;55.876;9.830;2022-12-07T14:27:55;20.73;48.89
31443;SHT31;18065;55.876;9.830;2022-12-07T14:30:26;20.71;48.89
31443;SHT31;18065;55.876;9.830;2022-12-07T14:32:59;20.70;48.89
31443;SHT31;18065;55.876;9.830;2022-12-07T14:35:31;20.70;48.89
31443;SHT31;18065;55.876;9.830;2022-12-07T14:38:00;20.69;48.93
31443;SHT31;18065;55.876;9.830;2022-12-07T14:40:29;20.69;48.93
31443;SHT31;18065;55.876;9.830;2022-12-07T14:43:01;20.70;48.90
31443;SHT31;18065;55.876;9.830;2022-12-07T14:45:30;20.70;48.84
31443;SHT31;18065;55.876;9.830;2022-12-07T14:47:59;20.69;48.86
31443;SHT31;18065;55.876;9.830;2022-12-07T14:50:33;20.67;48.92
31443;SHT31;18065;55.876;9.830;2022-12-07T14:53:09;20.69;48.90
31443;SHT31;18065;55.876;9.830;2022-12-07T14:55:39;20.63;48.87
31443;SHT31;18065;55.876;9.830;2022-12-07T14:58:12;20.64;48.88
31443;SHT31;18065;55.876;9.830;2022-12-07T15:00:42;20.63;48.86
31443;SHT31;18065;55.876;9.830;2022-12-07T15:03:11;20.61;48.85
31443;SHT31;18065;55.876;9.830;2022-12-07T15:05:43;20.60;48.90
31443;SHT31;18065;55.876;9.830;2022-12-07T15:08:13;20.61;48.88
31443;SHT31;18065;55.876;9.830;2022-12-07T15:10:42;20.59;48.89
31443;SHT31;18065;55.876;9.830;2022-12-07T15:13:10;20.60;48.89
31443;SHT31;18065;55.876;9.830;2022-12-07T15:15:53;20.59;48.92
31443;SHT31;18065;55.876;9.830;2022-12-07T15:18:23;20.56;48.90
31443;SHT31;18065;55.876;9.830;2022-12-07T15:20:54;20.59;48.94
31443;SHT31;18065;55.876;9.830;2022-12-07T15:23:23;20.57;48.93
31443;SHT31;18065;55.876;9.830;2022-12-07T15:25:52;20.54;48.92
31443;SHT31;18065;55.876;9.830;2022-12-07T15:28:20;20.56;48.92
31443;SHT31;18065;55.876;9.830;2022-12-07T15:30:49;20.57;48.96
31443;SHT31;18065;55.876;9.830;2022-12-07T15:33:17;20.53;48.95
31443;SHT31;18065;55.876;9.830;2022-12-07T15:35:46;20.54;48.95
31443;SHT31;18065;55.876;9.830;2022-12-07T15:38:18;20.53;48.96
31443;SHT31;18065;55.876;9.830;2022-12-07T15:40:48;20.51;48.97
31443;SHT31;18065;55.876;9.830;2022-12-07T15:43:17;20.53;49.00
31443;SHT31;18065;55.876;9.830;2022-12-07T15:46:10;20.54;48.97
31443;SHT31;18065;55.876;9.830;2022-12-07T15:48:39;20.51;49.01
31443;SHT31;18065;55.876;9.830;2022-12-07T15:51:08;20.51;49.00
31443;SHT31;18065;55.876;9.830;2022-12-07T15:53:40;20.54;48.99
31443;SHT31;18065;55.876;9.830;2022-12-07T15:56:08;20.53;48.98
31443;SHT31;18065;55.876;9.830;2022-12-07T15:58:37;20.53;48.96
31443;SHT31;18065;55.876;9.830;2022-12-07T16:01:10;20.51;48.96
31443;SHT31;18065;55.876;9.830;2022-12-07T16:03:39;20.56;48.89
31443;SHT31;18065;55.876;9.830;2022-12-07T16:06:08;20.51;48.92
31443;SHT31;18065;55.876;9.830;2022-12-07T16:08:41;20.51;48.95
31443;SHT31;18065;55.876;9.830;2022-12-07T16:11:10;20.51;48.93
31443;SHT31;18065;55.876;9.830;2022-12-07T16:13:39;20.51;48.91
31443;SHT31;18065;55.876;9.830;2022-12-07T16:16:10;20.50;48.93
31443;SHT31;18065;55.876;9.830;2022-12-07T16:18:39;20.50;48.89
31443;SHT31;18065;55.876;9.830;2022-12-07T16:21:10;20.50;48.89